sensor_id;sensor_type;location;lat;lon;timestamp;P1;durP1;ratioP1;P2;durP2;ratioP2
7665;SDS011;3875;46.562;4.898;2023-07-08T00:00:46;4.27;;;3.83;;
7665;SDS011;3875;46.562;4.898;2023-07-08T00:03:13;8.37;;;4.20;;
7665;SDS011;3875;46.562;4.898;2023-07-08T00:05:39;6.00;;;3.90;;
7665;SDS011;3875;46.562;4.898;2023-07-08T00:08:07;8.90;;;3.87;;
7665;SDS011;3875;46.562;4.898;2023-07-08T00:10:36;8.40;;;4.17;;
7665;SDS011;3875;46.562;4.898;2023-07-08T00:13:02;9.17;;;4.13;;
7665;SDS011;3875;46.562;4.898;2023-07-08T00:15:28;6.50;;;4.63;;
7665;SDS011;3875;46.562;4.898;2023-07-08T00:17:57;8.03;;;4.33;;
7665;SDS011;3875;46.562;4.898;2023-07-08T00:20:26;5.23;;;4.40;;
7665;SDS011;3875;46.562;4.898;2023-07-08T00:23:00;9.13;;;4.23;;
7665;SDS011;3875;46.562;4.898;2023-07-08T00:25:26;5.70;;;4.43;;
7665;SDS011;3875;46.562;4.898;2023-07-08T00:27:52;9.47;;;4.93;;
7665;SDS011;3875;46.562;4.898;2023-07-08T00:30:22;8.07;;;4.47;;
7665;SDS011;3875;46.562;4.898;2023-07-08T00:32:56;7.83;;;4.13;;
7665;SDS011;3875;46.562;4.898;2023-07-08T00:35:24;6.63;;;4.57;;
7665;SDS011;3875;46.562;4.898;2023-07-08T00:37:55;9.30;;;4.93;;
7665;SDS011;3875;46.562;4.898;2023-07-08T00:40:26;9.77;;;5.00;;
7665;SDS011;3875;46.562;4.898;2023-07-08T00:42:54;8.60;;;4.70;;
7665;SDS011;3875;46.562;4.898;2023-07-08T00:45:56;10.00;;;4.80;;
7665;SDS011;3875;46.562;4.898;2023-07-08T00:48:24;6.80;;;4.70;;
7665;SDS011;3875;46.562;4.898;2023-07-08T00:50:53;10.13;;;4.50;;
7665;SDS011;3875;46.562;4.898;2023-07-08T00:55:50;7.03;;;4.80;;
7665;SDS011;3875;46.562;4.898;2023-07-08T00:58:23;6.07;;;4.57;;
7665;SDS011;3875;46.562;4.898;2023-07-08T01:00:52;11.43;;;5.03;;
7665;SDS011;3875;46.562;4.898;2023-07-08T01:03:21;6.93;;;4.67;;
7665;SDS011;3875;46.562;4.898;2023-07-08T01:05:48;7.07;;;4.60;;
7665;SDS011;3875;46.562;4.898;2023-07-08T01:08:15;8.40;;;4.23;;
7665;SDS011;3875;46.562;4.898;2023-07-08T01:10:47;10.87;;;5.10;;
7665;SDS011;3875;46.562;4.898;2023-07-08T01:13:18;7.43;;;4.53;;
7665;SDS011;3875;46.562;4.898;2023-07-08T01:15:45;8.10;;;4.97;;
7665;SDS011;3875;46.562;4.898;2023-07-08T01:18:12;8.90;;;4.60;;
7665;SDS011;3875;46.562;4.898;2023-07-08T01:20:41;9.93;;;5.00;;
7665;SDS011;3875;46.562;4.898;2023-07-08T01:23:07;8.77;;;5.30;;
7665;SDS011;3875;46.562;4.898;2023-07-08T01:25:35;7.40;;;4.90;;
7665;SDS011;3875;46.562;4.898;2023-07-08T01:28:00;9.07;;;4.60;;
7665;SDS011;3875;46.562;4.898;2023-07-08T01:30:27;7.13;;;4.20;;
7665;SDS011;3875;46.562;4.898;2023-07-08T01:32:55;5.97;;;4.57;;
7665;SDS011;3875;46.562;4.898;2023-07-08T01:35:25;7.13;;;4.70;;
7665;SDS011;3875;46.562;4.898;2023-07-08T01:37:52;5.07;;;4.37;;
7665;SDS011;3875;46.562;4.898;2023-07-08T01:40:26;8.07;;;4.60;;
7665;SDS011;3875;46.562;4.898;2023-07-08T01:42:52;7.00;;;4.30;;
7665;SDS011;3875;46.562;4.898;2023-07-08T01:45:19;10.00;;;4.87;;
7665;SDS011;3875;46.562;4.898;2023-07-08T01:47:46;6.40;;;4.60;;
7665;SDS011;3875;46.562;4.898;2023-07-08T01:50:16;10.03;;;4.83;;
7665;SDS011;3875;46.562;4.898;2023-07-08T01:52:45;9.80;;;4.20;;
7665;SDS011;3875;46.562;4.898;2023-07-08T01:55:13;8.33;;;4.43;;
7665;SDS011;3875;46.562;4.898;2023-07-08T01:57:38;8.83;;;4.50;;
7665;SDS011;3875;46.562;4.898;2023-07-08T02:00:05;8.70;;;5.13;;
7665;SDS011;3875;46.562;4.898;2023-07-08T02:02:31;6.37;;;4.53;;
7665;SDS011;3875;46.562;4.898;2023-07-08T02:04:57;6.20;;;4.23;;
7665;SDS011;3875;46.562;4.898;2023-07-08T02:07:22;7.73;;;4.30;;
7665;SDS011;3875;46.562;4.898;2023-07-08T02:09:48;8.07;;;4.50;;
7665;SDS011;3875;46.562;4.898;2023-07-08T02:12:14;8.17;;;4.63;;
7665;SDS011;3875;46.562;4.898;2023-07-08T02:14:39;6.70;;;4.30;;
7665;SDS011;3875;46.562;4.898;2023-07-08T02:17:05;7.40;;;5.03;;
7665;SDS011;3875;46.562;4.898;2023-07-08T02:19:31;6.93;;;4.50;;
7665;SDS011;3875;46.562;4.898;2023-07-08T02:21:56;7.43;;;4.43;;
7665;SDS011;3875;46.562;4.898;2023-07-08T02:24:22;5.13;;;4.27;;
7665;SDS011;3875;46.562;4.898;2023-07-08T02:26:48;6.67;;;3.90;;
7665;SDS011;3875;46.562;4.898;2023-07-08T02:29:14;8.13;;;4.90;;
7665;SDS011;3875;46.562;4.898;2023-07-08T02:31:40;6.30;;;4.27;;
7665;SDS011;3875;46.562;4.898;2023-07-08T02:34:06;6.90;;;4.50;;
7665;SDS011;3875;46.562;4.898;2023-07-08T02:36:33;6.13;;;4.10;;
7665;SDS011;3875;46.562;4.898;2023-07-08T02:38:59;12.63;;;4.37;;
7665;SDS011;3875;46.562;4.898;2023-07-08T02:41:25;7.10;;;4.07;;
7665;SDS011;3875;46.562;4.898;2023-07-08T02:43:51;6.03;;;4.40;;
7665;SDS011;3875;46.562;4.898;2023-07-08T02:46:16;4.53;;;3.80;;
7665;SDS011;3875;46.562;4.898;2023-07-08T02:48:42;5.43;;;4.10;;
7665;SDS011;3875;46.562;4.898;2023-07-08T02:51:07;8.00;;;4.27;;
7665;SDS011;3875;46.562;4.898;2023-07-08T02:53:34;7.57;;;4.53;;
7665;SDS011;3875;46.562;4.898;2023-07-08T02:55:59;9.50;;;4.63;;
7665;SDS011;3875;46.562;4.898;2023-07-08T02:58:25;5.60;;;4.03;;
7665;SDS011;3875;46.562;4.898;2023-07-08T03:00:51;5.30;;;4.30;;
7665;SDS011;3875;46.562;4.898;2023-07-08T03:03:18;6.57;;;3.93;;
7665;SDS011;3875;46.562;4.898;2023-07-08T03:05:43;5.23;;;3.67;;
7665;SDS011;3875;46.562;4.898;2023-07-08T03:08:09;6.87;;;4.13;;
7665;SDS011;3875;46.562;4.898;2023-07-08T03:10:35;6.23;;;4.30;;
7665;SDS011;3875;46.562;4.898;2023-07-08T03:13:00;7.07;;;4.30;;
7665;SDS011;3875;46.562;4.898;2023-07-08T03:15:26;8.07;;;4.60;;
7665;SDS011;3875;46.562;4.898;2023-07-08T03:17:51;9.30;;;4.70;;
7665;SDS011;3875;46.562;4.898;2023-07-08T03:20:22;9.63;;;4.70;;
7665;SDS011;3875;46.562;4.898;2023-07-08T03:22:48;7.07;;;3.87;;
7665;SDS011;3875;46.562;4.898;2023-07-08T03:25:13;8.40;;;4.43;;
7665;SDS011;3875;46.562;4.898;2023-07-08T03:27:39;6.13;;;4.60;;
7665;SDS011;3875;46.562;4.898;2023-07-08T03:30:05;8.20;;;4.87;;
7665;SDS011;3875;46.562;4.898;2023-07-08T03:32:31;4.93;;;4.43;;
7665;SDS011;3875;46.562;4.898;2023-07-08T03:34:57;7.37;;;4.83;;
7665;SDS011;3875;46.562;4.898;2023-07-08T03:37:22;7.67;;;4.50;;
7665;SDS011;3875;46.562;4.898;2023-07-08T03:39:48;6.00;;;4.47;;
7665;SDS011;3875;46.562;4.898;2023-07-08T03:42:13;8.77;;;4.90;;
7665;SDS011;3875;46.562;4.898;2023-07-08T03:44:39;7.07;;;3.87;;
7665;SDS011;3875;46.562;4.898;2023-07-08T03:47:05;10.27;;;4.53;;
7665;SDS011;3875;46.562;4.898;2023-07-08T03:49:32;7.17;;;4.60;;
7665;SDS011;3875;46.562;4.898;2023-07-08T03:51:58;5.27;;;4.20;;
7665;SDS011;3875;46.562;4.898;2023-07-08T03:54:24;7.07;;;4.10;;
7665;SDS011;3875;46.562;4.898;2023-07-08T03:56:50;4.73;;;4.07;;
7665;SDS011;3875;46.562;4.898;2023-07-08T03:59:16;6.50;;;4.30;;
7665;SDS011;3875;46.562;4.898;2023-07-08T04:01:42;4.90;;;3.87;;
7665;SDS011;3875;46.562;4.898;2023-07-08T04:04:09;9.30;;;4.47;;
7665;SDS011;3875;46.562;4.898;2023-07-08T04:06:37;7.47;;;4.70;;
7665;SDS011;3875;46.562;4.898;2023-07-08T04:09:03;4.97;;;4.03;;
7665;SDS011;3875;46.562;4.898;2023-07-08T04:11:29;4.80;;;3.97;;
7665;SDS011;3875;46.562;4.898;2023-07-08T04:13:54;7.83;;;3.90;;
7665;SDS011;3875;46.562;4.898;2023-07-08T04:16:24;7.13;;;4.60;;
7665;SDS011;3875;46.562;4.898;2023-07-08T04:18:53;5.27;;;4.10;;
7665;SDS011;3875;46.562;4.898;2023-07-08T04:21:20;8.43;;;4.60;;
7665;SDS011;3875;46.562;4.898;2023-07-08T04:23:47;8.07;;;4.10;;
7665;SDS011;3875;46.562;4.898;2023-07-08T04:26:12;6.40;;;3.97;;
7665;SDS011;3875;46.562;4.898;2023-07-08T04:28:38;7.13;;;4.03;;
7665;SDS011;3875;46.562;4.898;2023-07-08T04:31:04;8.60;;;3.93;;
7665;SDS011;3875;46.562;4.898;2023-07-08T04:33:29;9.40;;;4.50;;
7665;SDS011;3875;46.562;4.898;2023-07-08T04:35:55;8.10;;;4.30;;
7665;SDS011;3875;46.562;4.898;2023-07-08T04:38:25;8.80;;;4.90;;
7665;SDS011;3875;46.562;4.898;2023-07-08T04:40:51;7.73;;;4.70;;
7665;SDS011;3875;46.562;4.898;2023-07-08T04:43:19;6.50;;;4.40;;
7665;SDS011;3875;46.562;4.898;2023-07-08T04:45:51;10.27;;;4.77;;
7665;SDS011;3875;46.562;4.898;2023-07-08T04:48:19;6.20;;;3.93;;
7665;SDS011;3875;46.562;4.898;2023-07-08T04:50:47;8.00;;;4.70;;
7665;SDS011;3875;46.562;4.898;2023-07-08T04:53:14;7.53;;;4.40;;
7665;SDS011;3875;46.562;4.898;2023-07-08T04:55:48;7.50;;;4.13;;
7665;SDS011;3875;46.562;4.898;2023-07-08T04:58:18;7.80;;;4.30;;
7665;SDS011;3875;46.562;4.898;2023-07-08T05:00:43;11.67;;;4.10;;
7665;SDS011;3875;46.562;4.898;2023-07-08T05:03:09;5.63;;;4.40;;
7665;SDS011;3875;46.562;4.898;2023-07-08T05:05:35;5.03;;;4.30;;
7665;SDS011;3875;46.562;4.898;2023-07-08T05:08:01;8.43;;;4.53;;
7665;SDS011;3875;46.562;4.898;2023-07-08T05:10:27;7.80;;;4.33;;
7665;SDS011;3875;46.562;4.898;2023-07-08T05:12:52;6.00;;;4.13;;
7665;SDS011;3875;46.562;4.898;2023-07-08T05:15:18;9.07;;;4.63;;
7665;SDS011;3875;46.562;4.898;2023-07-08T05:17:44;7.27;;;4.17;;
7665;SDS011;3875;46.562;4.898;2023-07-08T05:20:10;8.17;;;4.43;;
7665;SDS011;3875;46.562;4.898;2023-07-08T05:22:39;7.93;;;4.00;;
7665;SDS011;3875;46.562;4.898;2023-07-08T05:25:05;8.37;;;4.60;;
7665;SDS011;3875;46.562;4.898;2023-07-08T05:27:31;11.43;;;6.43;;
7665;SDS011;3875;46.562;4.898;2023-07-08T05:30:03;13.83;;;9.77;;
7665;SDS011;3875;46.562;4.898;2023-07-08T05:32:30;18.27;;;12.03;;
7665;SDS011;3875;46.562;4.898;2023-07-08T05:34:56;18.17;;;11.30;;
7665;SDS011;3875;46.562;4.898;2023-07-08T05:37:21;17.77;;;10.47;;
7665;SDS011;3875;46.562;4.898;2023-07-08T05:39:50;14.20;;;8.97;;
7665;SDS011;3875;46.562;4.898;2023-07-08T05:42:17;16.07;;;8.90;;
7665;SDS011;3875;46.562;4.898;2023-07-08T05:44:43;15.57;;;9.17;;
7665;SDS011;3875;46.562;4.898;2023-07-08T05:47:09;14.13;;;9.70;;
7665;SDS011;3875;46.562;4.898;2023-07-08T05:49:34;11.57;;;8.23;;
7665;SDS011;3875;46.562;4.898;2023-07-08T05:52:00;13.80;;;8.33;;
7665;SDS011;3875;46.562;4.898;2023-07-08T05:54:30;12.93;;;8.90;;
7665;SDS011;3875;46.562;4.898;2023-07-08T05:56:56;16.23;;;9.13;;
7665;SDS011;3875;46.562;4.898;2023-07-08T05:59:22;13.00;;;8.43;;
7665;SDS011;3875;46.562;4.898;2023-07-08T06:01:47;13.00;;;8.57;;
7665;SDS011;3875;46.562;4.898;2023-07-08T06:04:13;15.70;;;8.53;;
7665;SDS011;3875;46.562;4.898;2023-07-08T06:06:39;13.57;;;7.13;;
7665;SDS011;3875;46.562;4.898;2023-07-08T06:09:04;9.33;;;5.23;;
7665;SDS011;3875;46.562;4.898;2023-07-08T06:11:30;9.23;;;5.40;;
7665;SDS011;3875;46.562;4.898;2023-07-08T06:13:55;12.70;;;6.30;;
7665;SDS011;3875;46.562;4.898;2023-07-08T06:16:23;6.53;;;5.27;;
7665;SDS011;3875;46.562;4.898;2023-07-08T06:18:48;7.10;;;5.17;;
7665;SDS011;3875;46.562;4.898;2023-07-08T06:21:14;11.77;;;6.10;;
7665;SDS011;3875;46.562;4.898;2023-07-08T06:23:39;7.63;;;5.43;;
7665;SDS011;3875;46.562;4.898;2023-07-08T06:26:05;12.47;;;5.20;;
7665;SDS011;3875;46.562;4.898;2023-07-08T06:28:31;10.93;;;5.50;;
7665;SDS011;3875;46.562;4.898;2023-07-08T06:30:56;9.10;;;5.60;;
7665;SDS011;3875;46.562;4.898;2023-07-08T06:33:22;7.43;;;4.90;;
7665;SDS011;3875;46.562;4.898;2023-07-08T06:35:47;13.60;;;5.63;;
7665;SDS011;3875;46.562;4.898;2023-07-08T06:38:13;8.80;;;4.63;;
7665;SDS011;3875;46.562;4.898;2023-07-08T06:40:39;10.90;;;5.10;;
7665;SDS011;3875;46.562;4.898;2023-07-08T06:43:04;9.73;;;4.60;;
7665;SDS011;3875;46.562;4.898;2023-07-08T06:45:30;6.90;;;4.50;;
7665;SDS011;3875;46.562;4.898;2023-07-08T06:47:56;8.77;;;4.83;;
7665;SDS011;3875;46.562;4.898;2023-07-08T06:50:22;8.57;;;5.03;;
7665;SDS011;3875;46.562;4.898;2023-07-08T06:52:47;7.57;;;4.87;;
7665;SDS011;3875;46.562;4.898;2023-07-08T06:55:13;12.50;;;4.40;;
7665;SDS011;3875;46.562;4.898;2023-07-08T06:57:39;9.10;;;5.20;;
7665;SDS011;3875;46.562;4.898;2023-07-08T07:00:08;8.80;;;4.30;;
7665;SDS011;3875;46.562;4.898;2023-07-08T07:02:36;6.53;;;4.50;;
7665;SDS011;3875;46.562;4.898;2023-07-08T07:05:02;6.93;;;4.30;;
7665;SDS011;3875;46.562;4.898;2023-07-08T07:07:29;7.67;;;4.27;;
7665;SDS011;3875;46.562;4.898;2023-07-08T07:09:55;9.40;;;4.90;;
7665;SDS011;3875;46.562;4.898;2023-07-08T07:12:21;9.90;;;4.70;;
7665;SDS011;3875;46.562;4.898;2023-07-08T07:14:48;9.17;;;4.97;;
7665;SDS011;3875;46.562;4.898;2023-07-08T07:17:17;7.93;;;4.80;;
7665;SDS011;3875;46.562;4.898;2023-07-08T07:19:44;5.10;;;4.60;;
7665;SDS011;3875;46.562;4.898;2023-07-08T07:22:09;9.83;;;4.17;;
7665;SDS011;3875;46.562;4.898;2023-07-08T07:24:35;10.47;;;4.27;;
7665;SDS011;3875;46.562;4.898;2023-07-08T07:27:01;9.77;;;4.00;;
7665;SDS011;3875;46.562;4.898;2023-07-08T07:29:26;9.23;;;4.50;;
7665;SDS011;3875;46.562;4.898;2023-07-08T07:31:52;8.47;;;4.33;;
7665;SDS011;3875;46.562;4.898;2023-07-08T07:34:18;6.77;;;4.30;;
7665;SDS011;3875;46.562;4.898;2023-07-08T07:36:43;8.88;;;4.60;;
7665;SDS011;3875;46.562;4.898;2023-07-08T07:39:09;6.43;;;4.25;;
7665;SDS011;3875;46.562;4.898;2023-07-08T07:41:35;9.97;;;4.77;;
7665;SDS011;3875;46.562;4.898;2023-07-08T07:44:00;6.70;;;4.50;;
7665;SDS011;3875;46.562;4.898;2023-07-08T07:46:26;8.98;;;4.85;;
7665;SDS011;3875;46.562;4.898;2023-07-08T07:48:52;8.02;;;4.10;;
7665;SDS011;3875;46.562;4.898;2023-07-08T07:51:17;7.97;;;4.15;;
7665;SDS011;3875;46.562;4.898;2023-07-08T07:53:43;9.20;;;4.50;;
7665;SDS011;3875;46.562;4.898;2023-07-08T07:56:08;8.67;;;4.10;;
7665;SDS011;3875;46.562;4.898;2023-07-08T07:58:34;8.55;;;4.18;;
7665;SDS011;3875;46.562;4.898;2023-07-08T08:01:00;8.55;;;4.30;;
7665;SDS011;3875;46.562;4.898;2023-07-08T08:03:25;6.90;;;3.90;;
7665;SDS011;3875;46.562;4.898;2023-07-08T08:05:51;11.40;;;4.50;;
7665;SDS011;3875;46.562;4.898;2023-07-08T08:08:19;7.72;;;4.05;;
7665;SDS011;3875;46.562;4.898;2023-07-08T08:10:44;9.48;;;4.00;;
7665;SDS011;3875;46.562;4.898;2023-07-08T08:13:10;9.55;;;4.40;;
7665;SDS011;3875;46.562;4.898;2023-07-08T08:15:37;8.50;;;4.27;;
7665;SDS011;3875;46.562;4.898;2023-07-08T08:18:03;7.45;;;4.15;;
7665;SDS011;3875;46.562;4.898;2023-07-08T08:20:29;7.93;;;4.32;;
7665;SDS011;3875;46.562;4.898;2023-07-08T08:22:55;9.07;;;4.47;;
7665;SDS011;3875;46.562;4.898;2023-07-08T08:25:21;9.07;;;4.43;;
7665;SDS011;3875;46.562;4.898;2023-07-08T08:27:48;9.10;;;4.32;;
7665;SDS011;3875;46.562;4.898;2023-07-08T08:30:15;7.90;;;4.20;;
7665;SDS011;3875;46.562;4.898;2023-07-08T08:32:40;10.32;;;4.15;;
7665;SDS011;3875;46.562;4.898;2023-07-08T08:35:06;7.80;;;4.38;;
7665;SDS011;3875;46.562;4.898;2023-07-08T08:37:32;8.55;;;4.40;;
7665;SDS011;3875;46.562;4.898;2023-07-08T08:39:58;7.32;;;4.00;;
7665;SDS011;3875;46.562;4.898;2023-07-08T08:44:49;7.30;;;3.65;;
7665;SDS011;3875;46.562;4.898;2023-07-08T08:49:57;10.18;;;4.05;;
7665;SDS011;3875;46.562;4.898;2023-07-08T08:52:30;7.07;;;4.03;;
7665;SDS011;3875;46.562;4.898;2023-07-08T08:54:56;6.10;;;3.88;;
7665;SDS011;3875;46.562;4.898;2023-07-08T08:57:31;7.47;;;4.28;;
7665;SDS011;3875;46.562;4.898;2023-07-08T09:00:03;8.38;;;4.40;;
7665;SDS011;3875;46.562;4.898;2023-07-08T09:05:05;7.93;;;3.97;;
7665;SDS011;3875;46.562;4.898;2023-07-08T09:07:34;8.27;;;4.43;;
7665;SDS011;3875;46.562;4.898;2023-07-08T09:10:21;10.73;;;4.07;;
7665;SDS011;3875;46.562;4.898;2023-07-08T09:13:00;6.15;;;3.85;;
7665;SDS011;3875;46.562;4.898;2023-07-08T09:15:29;6.07;;;4.20;;
7665;SDS011;3875;46.562;4.898;2023-07-08T09:17:57;6.22;;;4.30;;
7665;SDS011;3875;46.562;4.898;2023-07-08T09:20:40;8.02;;;4.70;;
7665;SDS011;3875;46.562;4.898;2023-07-08T09:23:17;8.85;;;4.32;;
7665;SDS011;3875;46.562;4.898;2023-07-08T09:25:52;6.35;;;4.30;;
7665;SDS011;3875;46.562;4.898;2023-07-08T09:28:42;6.50;;;3.97;;
7665;SDS011;3875;46.562;4.898;2023-07-08T09:31:14;8.93;;;4.72;;
7665;SDS011;3875;46.562;4.898;2023-07-08T09:33:47;8.93;;;4.75;;
7665;SDS011;3875;46.562;4.898;2023-07-08T09:36:16;7.28;;;4.47;;
7665;SDS011;3875;46.562;4.898;2023-07-08T09:38:46;8.00;;;4.30;;
7665;SDS011;3875;46.562;4.898;2023-07-08T09:41:13;9.38;;;3.97;;
7665;SDS011;3875;46.562;4.898;2023-07-08T09:43:42;6.07;;;4.60;;
7665;SDS011;3875;46.562;4.898;2023-07-08T09:46:10;8.23;;;4.75;;
7665;SDS011;3875;46.562;4.898;2023-07-08T09:48:38;9.50;;;4.17;;
7665;SDS011;3875;46.562;4.898;2023-07-08T09:51:04;10.43;;;4.10;;
7665;SDS011;3875;46.562;4.898;2023-07-08T09:53:29;6.85;;;4.15;;
7665;SDS011;3875;46.562;4.898;2023-07-08T09:55:59;8.13;;;4.85;;
7665;SDS011;3875;46.562;4.898;2023-07-08T09:58:30;6.57;;;4.40;;
7665;SDS011;3875;46.562;4.898;2023-07-08T10:01:00;6.38;;;4.03;;
7665;SDS011;3875;46.562;4.898;2023-07-08T10:03:31;6.63;;;4.18;;
7665;SDS011;3875;46.562;4.898;2023-07-08T10:06:02;8.63;;;4.60;;
7665;SDS011;3875;46.562;4.898;2023-07-08T10:08:36;5.95;;;4.75;;
7665;SDS011;3875;46.562;4.898;2023-07-08T10:13:44;6.03;;;3.83;;
7665;SDS011;3875;46.562;4.898;2023-07-08T10:16:16;9.30;;;4.38;;
7665;SDS011;3875;46.562;4.898;2023-07-08T10:18:50;7.80;;;4.10;;
7665;SDS011;3875;46.562;4.898;2023-07-08T10:21:26;7.45;;;4.13;;
7665;SDS011;3875;46.562;4.898;2023-07-08T10:26:40;7.38;;;4.50;;
7665;SDS011;3875;46.562;4.898;2023-07-08T10:54:32;6.53;;;4.15;;
7665;SDS011;3875;46.562;4.898;2023-07-08T11:05:37;6.80;;;4.13;;
7665;SDS011;3875;46.562;4.898;2023-07-08T11:08:22;9.65;;;4.28;;
7665;SDS011;3875;46.562;4.898;2023-07-08T11:10:55;8.05;;;4.28;;
7665;SDS011;3875;46.562;4.898;2023-07-08T11:13:24;7.25;;;3.88;;
7665;SDS011;3875;46.562;4.898;2023-07-08T11:18:53;9.55;;;3.88;;
7665;SDS011;3875;46.562;4.898;2023-07-08T11:21:45;6.97;;;3.30;;
7665;SDS011;3875;46.562;4.898;2023-07-08T11:24:31;5.03;;;3.55;;
7665;SDS011;3875;46.562;4.898;2023-07-08T11:27:21;6.95;;;3.78;;
7665;SDS011;3875;46.562;4.898;2023-07-08T11:30:12;5.15;;;3.60;;
7665;SDS011;3875;46.562;4.898;2023-07-08T11:32:47;5.80;;;3.53;;
7665;SDS011;3875;46.562;4.898;2023-07-08T11:35:21;8.27;;;3.38;;
7665;SDS011;3875;46.562;4.898;2023-07-08T11:37:53;8.95;;;3.80;;
7665;SDS011;3875;46.562;4.898;2023-07-08T11:40:23;6.65;;;3.67;;
7665;SDS011;3875;46.562;4.898;2023-07-08T11:42:53;6.70;;;3.70;;
7665;SDS011;3875;46.562;4.898;2023-07-08T11:45:37;4.35;;;2.95;;
7665;SDS011;3875;46.562;4.898;2023-07-08T11:48:06;4.65;;;3.33;;
7665;SDS011;3875;46.562;4.898;2023-07-08T11:50:42;7.65;;;3.45;;
7665;SDS011;3875;46.562;4.898;2023-07-08T11:53:12;5.70;;;3.42;;
7665;SDS011;3875;46.562;4.898;2023-07-08T11:55:57;9.20;;;4.00;;
7665;SDS011;3875;46.562;4.898;2023-07-08T11:58:28;5.50;;;3.65;;
7665;SDS011;3875;46.562;4.898;2023-07-08T12:12:10;5.53;;;3.70;;
7665;SDS011;3875;46.562;4.898;2023-07-08T12:14:44;6.57;;;4.10;;
7665;SDS011;3875;46.562;4.898;2023-07-08T12:17:10;6.95;;;3.70;;
7665;SDS011;3875;46.562;4.898;2023-07-08T12:19:38;6.75;;;3.28;;
7665;SDS011;3875;46.562;4.898;2023-07-08T12:22:10;7.28;;;3.60;;
7665;SDS011;3875;46.562;4.898;2023-07-08T12:24:37;4.75;;;3.25;;
7665;SDS011;3875;46.562;4.898;2023-07-08T12:27:03;6.63;;;3.35;;
7665;SDS011;3875;46.562;4.898;2023-07-08T12:29:29;4.65;;;3.53;;
7665;SDS011;3875;46.562;4.898;2023-07-08T12:31:56;3.65;;;3.08;;
7665;SDS011;3875;46.562;4.898;2023-07-08T12:34:23;6.00;;;3.42;;
7665;SDS011;3875;46.562;4.898;2023-07-08T12:36:51;9.18;;;3.72;;
7665;SDS011;3875;46.562;4.898;2023-07-08T12:39:17;3.67;;;3.05;;
7665;SDS011;3875;46.562;4.898;2023-07-08T12:41:44;7.05;;;3.10;;
7665;SDS011;3875;46.562;4.898;2023-07-08T12:44:15;4.07;;;3.28;;
7665;SDS011;3875;46.562;4.898;2023-07-08T12:46:47;3.47;;;3.08;;
7665;SDS011;3875;46.562;4.898;2023-07-08T12:49:14;4.82;;;3.05;;
7665;SDS011;3875;46.562;4.898;2023-07-08T12:51:41;4.50;;;3.35;;
7665;SDS011;3875;46.562;4.898;2023-07-08T12:54:09;7.30;;;2.88;;
7665;SDS011;3875;46.562;4.898;2023-07-08T12:56:36;3.65;;;3.20;;
7665;SDS011;3875;46.562;4.898;2023-07-08T12:59:03;6.38;;;3.50;;
7665;SDS011;3875;46.562;4.898;2023-07-08T13:01:30;6.20;;;2.85;;
7665;SDS011;3875;46.562;4.898;2023-07-08T13:04:02;7.38;;;3.28;;
7665;SDS011;3875;46.562;4.898;2023-07-08T13:06:30;4.32;;;3.13;;
7665;SDS011;3875;46.562;4.898;2023-07-08T13:09:11;7.95;;;2.97;;
7665;SDS011;3875;46.562;4.898;2023-07-08T13:12:03;3.70;;;3.13;;
7665;SDS011;3875;46.562;4.898;2023-07-08T13:14:35;4.13;;;3.13;;
7665;SDS011;3875;46.562;4.898;2023-07-08T13:17:01;5.15;;;3.08;;
7665;SDS011;3875;46.562;4.898;2023-07-08T13:19:27;6.57;;;3.80;;
7665;SDS011;3875;46.562;4.898;2023-07-08T13:21:53;4.88;;;3.45;;
7665;SDS011;3875;46.562;4.898;2023-07-08T13:24:21;7.18;;;3.15;;
7665;SDS011;3875;46.562;4.898;2023-07-08T13:26:47;6.63;;;3.72;;
7665;SDS011;3875;46.562;4.898;2023-07-08T13:29:14;4.95;;;3.30;;
7665;SDS011;3875;46.562;4.898;2023-07-08T13:31:43;3.83;;;3.17;;
7665;SDS011;3875;46.562;4.898;2023-07-08T13:34:17;4.57;;;3.35;;
7665;SDS011;3875;46.562;4.898;2023-07-08T13:36:45;3.85;;;3.00;;
7665;SDS011;3875;46.562;4.898;2023-07-08T13:39:25;4.90;;;3.00;;
7665;SDS011;3875;46.562;4.898;2023-07-08T13:41:53;7.80;;;3.10;;
7665;SDS011;3875;46.562;4.898;2023-07-08T13:44:20;3.75;;;3.38;;
7665;SDS011;3875;46.562;4.898;2023-07-08T13:46:51;6.72;;;3.10;;
7665;SDS011;3875;46.562;4.898;2023-07-08T13:54:52;4.80;;;3.13;;
7665;SDS011;3875;46.562;4.898;2023-07-08T13:57:21;7.32;;;3.38;;
7665;SDS011;3875;46.562;4.898;2023-07-08T13:59:53;4.43;;;3.40;;
7665;SDS011;3875;46.562;4.898;2023-07-08T14:02:21;3.78;;;3.33;;
7665;SDS011;3875;46.562;4.898;2023-07-08T14:04:49;7.78;;;3.42;;
7665;SDS011;3875;46.562;4.898;2023-07-08T14:07:17;7.18;;;3.53;;
7665;SDS011;3875;46.562;4.898;2023-07-08T14:09:45;4.53;;;3.70;;
7665;SDS011;3875;46.562;4.898;2023-07-08T14:12:11;3.80;;;3.38;;
7665;SDS011;3875;46.562;4.898;2023-07-08T14:14:37;6.43;;;3.10;;
7665;SDS011;3875;46.562;4.898;2023-07-08T14:17:03;4.72;;;3.45;;
7665;SDS011;3875;46.562;4.898;2023-07-08T14:19:30;3.95;;;3.20;;
7665;SDS011;3875;46.562;4.898;2023-07-08T14:22:00;6.70;;;3.47;;
7665;SDS011;3875;46.562;4.898;2023-07-08T14:24:34;6.25;;;3.17;;
7665;SDS011;3875;46.562;4.898;2023-07-08T14:27:00;4.32;;;3.10;;
7665;SDS011;3875;46.562;4.898;2023-07-08T14:29:26;5.43;;;3.00;;
7665;SDS011;3875;46.562;4.898;2023-07-08T14:31:51;4.45;;;3.58;;
7665;SDS011;3875;46.562;4.898;2023-07-08T14:34:21;5.70;;;3.27;;
7665;SDS011;3875;46.562;4.898;2023-07-08T14:36:49;3.50;;;2.90;;
7665;SDS011;3875;46.562;4.898;2023-07-08T14:39:15;4.05;;;3.10;;
7665;SDS011;3875;46.562;4.898;2023-07-08T14:41:42;5.78;;;3.30;;
7665;SDS011;3875;46.562;4.898;2023-07-08T14:44:23;5.70;;;3.10;;
7665;SDS011;3875;46.562;4.898;2023-07-08T14:46:51;4.90;;;3.05;;
7665;SDS011;3875;46.562;4.898;2023-07-08T14:49:19;7.28;;;3.28;;
7665;SDS011;3875;46.562;4.898;2023-07-08T14:51:46;4.72;;;3.33;;
7665;SDS011;3875;46.562;4.898;2023-07-08T14:54:12;5.57;;;3.13;;
7665;SDS011;3875;46.562;4.898;2023-07-08T14:56:38;3.40;;;3.10;;
7665;SDS011;3875;46.562;4.898;2023-07-08T14:59:05;5.95;;;2.92;;
7665;SDS011;3875;46.562;4.898;2023-07-08T15:01:32;3.35;;;3.00;;
7665;SDS011;3875;46.562;4.898;2023-07-08T15:03:58;4.40;;;2.90;;
7665;SDS011;3875;46.562;4.898;2023-07-08T15:06:24;6.70;;;3.28;;
7665;SDS011;3875;46.562;4.898;2023-07-08T15:08:50;4.68;;;3.13;;
7665;SDS011;3875;46.562;4.898;2023-07-08T15:11:16;3.35;;;3.05;;
7665;SDS011;3875;46.562;4.898;2023-07-08T15:13:42;3.13;;;2.85;;
7665;SDS011;3875;46.562;4.898;2023-07-08T15:16:13;4.38;;;2.97;;
7665;SDS011;3875;46.562;4.898;2023-07-08T15:18:41;5.50;;;2.95;;
7665;SDS011;3875;46.562;4.898;2023-07-08T15:21:14;6.13;;;3.05;;
7665;SDS011;3875;46.562;4.898;2023-07-08T15:23:40;3.97;;;3.03;;
7665;SDS011;3875;46.562;4.898;2023-07-08T15:26:13;7.38;;;2.75;;
7665;SDS011;3875;46.562;4.898;2023-07-08T15:28:41;3.95;;;3.15;;
7665;SDS011;3875;46.562;4.898;2023-07-08T15:31:12;3.28;;;2.95;;
7665;SDS011;3875;46.562;4.898;2023-07-08T15:33:40;3.58;;;3.00;;
7665;SDS011;3875;46.562;4.898;2023-07-08T15:36:06;4.43;;;3.28;;
7665;SDS011;3875;46.562;4.898;2023-07-08T15:38:34;4.13;;;3.20;;
7665;SDS011;3875;46.562;4.898;2023-07-08T15:41:00;3.95;;;2.72;;
7665;SDS011;3875;46.562;4.898;2023-07-08T15:43:26;4.20;;;2.75;;
7665;SDS011;3875;46.562;4.898;2023-07-08T15:45:51;3.92;;;2.92;;
7665;SDS011;3875;46.562;4.898;2023-07-08T15:48:18;4.25;;;2.67;;
7665;SDS011;3875;46.562;4.898;2023-07-08T15:50:44;5.63;;;2.40;;
7665;SDS011;3875;46.562;4.898;2023-07-08T15:53:10;5.40;;;3.08;;
7665;SDS011;3875;46.562;4.898;2023-07-08T15:55:37;3.65;;;2.70;;
7665;SDS011;3875;46.562;4.898;2023-07-08T15:58:20;3.97;;;3.10;;
7665;SDS011;3875;46.562;4.898;2023-07-08T16:00:53;6.53;;;2.90;;
7665;SDS011;3875;46.562;4.898;2023-07-08T16:03:24;7.10;;;2.75;;
7665;SDS011;3875;46.562;4.898;2023-07-08T16:05:52;4.72;;;2.38;;
7665;SDS011;3875;46.562;4.898;2023-07-08T16:08:19;5.03;;;2.50;;
7665;SDS011;3875;46.562;4.898;2023-07-08T16:10:48;7.00;;;3.00;;
7665;SDS011;3875;46.562;4.898;2023-07-08T16:13:21;13.80;;;3.13;;
7665;SDS011;3875;46.562;4.898;2023-07-08T16:15:49;5.63;;;2.40;;
7665;SDS011;3875;46.562;4.898;2023-07-08T16:18:16;3.47;;;2.30;;
7665;SDS011;3875;46.562;4.898;2023-07-08T16:20:42;4.85;;;2.67;;
7665;SDS011;3875;46.562;4.898;2023-07-08T16:23:07;3.53;;;2.58;;
7665;SDS011;3875;46.562;4.898;2023-07-08T16:25:37;2.92;;;2.30;;
7665;SDS011;3875;46.562;4.898;2023-07-08T16:28:06;4.93;;;3.03;;
7665;SDS011;3875;46.562;4.898;2023-07-08T16:30:40;2.45;;;2.20;;